Time;durP1;ratioP1;P1;durP2;ratioP2;P2;SDS_P1;SDS_P2;PMS_P1;PMS_P2;Temp;Humidity;BMP_temperature;BMP_pressure;BME280_temperature;BME280_humidity;BME280_pressure;Samples;Min_cycle;Max_cycle;Signal;HPM_P1;HPM_P2
2022/02/02 00:02:50;;;;;;;5.35;2.08;;;10.50;78.30;;;;;;5019886;28;20173;-81
2022/02/02 00:15:07;;;;;;;5.75;2.03;;;10.50;78.30;;;;;;5022316;28;20026;-81
2022/02/02 00:21:28;;;;;;;5.82;2.30;;;10.40;78.40;;;;;;5009565;28;20073;-81
2022/02/02 00:31:49;;;;;;;6.75;2.55;;;10.40;78.50;;;;;;4967318;28;20026;-81
2022/02/02 00:35:03;;;;;;;9.10;3.00;;;10.40;78.40;;;;;;4954357;28;20122;-81
2022/02/02 00:38:03;;;;;;;6.35;2.30;;;10.40;78.40;;;;;;4972025;28;20042;-81
2022/02/02 00:45:33;;;;;;;7.78;2.65;;;10.40;78.40;;;;;;4960426;28;20139;-81
2022/02/02 00:48:36;;;;;;;9.50;2.92;;;10.30;79.10;;;;;;4956726;28;20100;-81
2022/02/02 00:51:24;;;;;;;7.10;2.35;;;10.30;78.50;;;;;;4932897;28;20475;-81
2022/02/02 00:54:40;;;;;;;6.80;2.22;;;10.30;78.60;;;;;;4963273;28;20042;-81
2022/02/02 00:57:08;;;;;;;7.68;2.40;;;10.30;78.60;;;;;;4952759;28;20036;-81
2022/02/02 01:00:19;;;;;;;10.13;2.88;;;10.30;78.50;;;;;;4944727;28;20039;-81
2022/02/02 01:03:40;;;;;;;9.18;2.40;;;10.30;78.50;;;;;;4953922;28;20043;-81
2022/02/02 01:07:00;;;;;;;6.65;2.55;;;10.30;78.60;;;;;;4950167;28;20043;-82
2022/02/02 01:10:56;;;;;;;8.82;2.63;;;10.30;78.40;;;;;;5027372;28;20064;-80
2022/02/02 01:19:58;;;;;;;7.45;2.53;;;10.30;78.50;;;;;;5016080;28;20030;-81
2022/02/02 01:29:55;;;;;;;6.45;2.38;;;10.30;78.60;;;;;;5033645;28;20047;-82
2022/02/02 01:33:10;;;;;;;8.40;2.70;;;10.30;78.50;;;;;;4991789;28;20049;-83
2022/02/02 01:39:12;;;;;;;6.65;2.50;;;10.30;78.70;;;;;;5008010;28;20029;-84
2022/02/02 01:42:22;;;;;;;8.50;3.10;;;10.30;78.50;;;;;;5014061;28;20064;-81
2022/02/02 01:49:17;;;;;;;11.45;3.08;;;10.30;78.70;;;;;;5024964;28;20056;-82
2022/02/02 01:51:55;;;;;;;9.52;2.88;;;10.30;78.70;;;;;;5031325;28;20061;-81
2022/02/02 01:55:37;;;;;;;6.22;2.10;;;10.30;78.60;;;;;;4998924;28;20442;-83
2022/02/02 02:02:19;;;;;;;6.93;2.58;;;10.20;78.50;;;;;;5032736;28;20061;-82
2022/02/02 02:05:44;;;;;;;9.10;2.35;;;10.20;78.70;;;;;;4982558;28;20034;-84
2022/02/02 02:09:36;;;;;;;8.23;2.50;;;10.20;78.70;;;;;;5003734;28;20061;-82
2022/02/02 02:16:03;;;;;;;6.85;3.10;;;10.20;78.60;;;;;;4998198;28;20037;-82
2022/02/02 02:19:28;;;;;;;8.60;2.60;;;10.20;78.70;;;;;;4998791;28;20038;-82
2022/02/02 02:22:53;;;;;;;7.78;2.75;;;10.20;78.80;;;;;;5003720;28;20045;-82
2022/02/02 02:26:29;;;;;;;6.38;2.28;;;10.20;78.70;;;;;;4991967;28;20422;-83
2022/02/02 02:33:26;;;;;;;6.85;2.35;;;10.10;78.70;;;;;;4961309;28;20290;-82
2022/02/02 03:30:00;;;;;;;7.43;2.70;;;10.10;78.80;;;;;;5042026;28;20456;-83
2022/02/02 03:52:31;;;;;;;6.07;2.40;;;10.00;78.90;;;;;;5016299;28;20086;-83
2022/02/02 03:58:49;;;;;;;8.30;2.60;;;10.00;78.80;;;;;;5040688;28;20106;-83
2022/02/02 04:02:53;;;;;;;5.50;2.17;;;10.00;78.80;;;;;;5035024;28;20479;-82
2022/02/02 04:08:48;;;;;;;7.95;2.78;;;10.00;78.80;;;;;;5003929;28;20060;-81
2022/02/02 04:12:08;;;;;;;8.07;2.40;;;10.00;78.90;;;;;;5012317;28;20160;-82
2022/02/02 05:01:30;;;;;;;6.38;2.33;;;10.00;78.70;;;;;;5024846;28;20112;-83
2022/02/02 05:07:07;;;;;;;5.72;2.10;;;10.00;78.70;;;;;;4935538;28;20077;-83
2022/02/02 05:10:51;;;;;;;7.97;2.20;;;10.00;78.70;;;;;;4951916;29;20050;-82
2022/02/02 05:17:20;;;;;;;7.00;2.47;;;10.00;78.70;;;;;;4936679;29;20050;-82
2022/02/02 05:54:56;;;;;;;7.03;2.50;;;10.00;78.90;;;;;;4961644;28;20038;-82
2022/02/02 05:58:13;;;;;;;10.02;3.08;;;10.00;78.80;;;;;;5012627;28;20037;-82
2022/02/02 06:01:46;;;;;;;8.05;2.58;;;10.00;78.70;;;;;;4951535;28;20517;-82
2022/02/02 06:05:12;;;;;;;8.60;3.03;;;10.00;78.90;;;;;;5011416;28;20108;-82
2022/02/02 06:08:14;;;;;;;8.90;2.83;;;10.00;78.80;;;;;;5020642;28;20089;-83
2022/02/02 06:11:13;;;;;;;7.38;2.75;;;10.00;78.80;;;;;;5011654;28;20029;-84
2022/02/02 06:13:57;;;;;;;9.75;2.50;;;10.00;79.30;;;;;;5003145;28;20398;-83
2022/02/02 06:16:35;;;;;;;7.57;2.58;;;10.00;78.80;;;;;;5014161;28;20032;-84
2022/02/02 06:19:39;;;;;;;8.73;3.00;;;10.00;78.70;;;;;;5015848;28;20040;-87
2022/02/02 06:23:07;;;;;;;5.82;2.30;;;10.00;78.80;;;;;;5017054;28;20037;-82
2022/02/02 06:34:58;;;;;;;8.80;2.65;;;10.00;78.80;;;;;;5026213;28;20064;-81
2022/02/02 06:45:44;;;;;;;6.95;2.72;;;10.00;78.90;;;;;;5032438;28;20041;-82
2022/02/02 06:48:13;;;;;;;7.20;2.65;;;10.00;78.90;;;;;;4998985;28;20033;-86
2022/02/02 06:50:58;;;;;;;8.52;3.13;;;10.00;78.80;;;;;;4998849;28;20025;-80
2022/02/02 06:53:58;;;;;;;6.88;2.13;;;10.00;78.90;;;;;;5017344;28;20411;-81
2022/02/02 06:56:58;;;;;;;8.65;2.78;;;10.00;78.90;;;;;;5028501;28;20037;-80
2022/02/02 07:20:02;;;;;;;7.10;2.33;;;10.00;78.70;;;;;;4997503;28;20057;-82
2022/02/02 07:23:28;;;;;;;5.97;2.30;;;10.00;78.60;;;;;;5030917;28;20056;-83
2022/02/02 07:34:54;;;;;;;6.45;2.17;;;10.00;78.60;;;;;;5001049;28;20048;-84
2022/02/02 07:37:32;;;;;;;6.03;2.40;;;10.00;78.70;;;;;;4997035;28;20036;-84
2022/02/02 07:40:08;;;;;;;8.95;2.78;;;9.90;78.50;;;;;;4998541;28;20037;-85
2022/02/02 07:42:50;;;;;;;5.68;2.38;;;9.90;78.60;;;;;;5014903;28;20041;-83
2022/02/02 07:45:25;;;;;;;6.70;2.10;;;9.90;78.50;;;;;;4974522;28;20029;-84
2022/02/02 07:48:18;;;;;;;8.95;2.90;;;9.90;78.50;;;;;;4965161;28;20509;-84
2022/02/02 07:50:49;;;;;;;5.95;2.15;;;9.90;78.60;;;;;;5008022;28;20048;-86
2022/02/02 07:53:22;;;;;;;9.38;2.45;;;9.90;78.50;;;;;;5011907;28;20038;-84
2022/02/02 07:55:57;;;;;;;4.93;1.92;;;9.90;78.50;;;;;;4998482;28;20045;-84
2022/02/02 07:58:32;;;;;;;6.32;2.00;;;9.90;78.50;;;;;;4994626;28;20029;-84
2022/02/02 08:00:59;;;;;;;4.97;2.22;;;9.90;78.50;;;;;;5008660;28;20123;-84
2022/02/02 08:03:28;;;;;;;5.82;2.10;;;9.90;78.50;;;;;;4980512;28;20045;-82
2022/02/02 08:06:10;;;;;;;4.82;2.05;;;9.90;78.50;;;;;;4977775;28;20487;-84
2022/02/02 08:08:49;;;;;;;6.38;2.25;;;9.90;78.50;;;;;;4964740;28;20042;-83
2022/02/02 08:11:30;;;;;;;4.38;2.00;;;9.90;78.40;;;;;;4995729;28;20045;-84
2022/02/02 08:14:38;;;;;;;7.38;2.42;;;9.90;78.40;;;;;;5004306;28;20049;-85
2022/02/02 08:17:11;;;;;;;5.65;2.00;;;9.90;78.50;;;;;;4998932;28;20033;-85
2022/02/02 08:19:39;;;;;;;8.25;2.35;;;9.90;78.40;;;;;;4999369;28;20363;-87
2022/02/02 08:22:11;;;;;;;5.90;2.08;;;9.90;78.40;;;;;;4997260;28;20053;-87
2022/02/02 08:24:48;;;;;;;7.20;2.70;;;9.90;78.50;;;;;;4987738;28;20073;-84
2022/02/02 08:27:19;;;;;;;6.35;2.00;;;9.90;78.50;;;;;;5004989;28;20045;-84
2022/02/02 08:29:55;;;;;;;5.07;2.15;;;9.90;78.50;;;;;;4979407;28;20061;-84
2022/02/02 08:32:27;;;;;;;;;;;9.90;78.50;;;;;;4998279;28;20045;-84
2022/02/02 08:34:59;;;;;;;4.18;1.90;;;9.90;78.40;;;;;;5016316;28;19985;-82
2022/02/02 08:37:35;;;;;;;4.43;2.10;;;9.90;78.30;;;;;;4995306;28;20025;-84
2022/02/02 08:40:28;;;;;;;5.97;2.10;;;9.80;78.40;;;;;;5002234;28;20470;-85
2022/02/02 08:42:59;;;;;;;5.00;1.90;;;9.90;78.50;;;;;;4986110;28;20034;-84
2022/02/02 08:45:36;;;;;;;6.03;2.17;;;9.90;78.50;;;;;;4993584;28;20386;-84
2022/02/02 08:48:08;;;;;;;5.07;2.22;;;9.90;78.50;;;;;;5002392;28;20052;-85
2022/02/02 08:50:53;;;;;;;6.03;2.30;;;9.90;78.50;;;;;;4984830;28;20045;-81
2022/02/02 08:58:23;;;;;;;4.82;1.83;;;9.90;78.50;;;;;;5017442;28;20132;-83
2022/02/02 09:00:52;;;;;;;4.88;1.85;;;9.90;78.50;;;;;;5018619;28;20037;-84
2022/02/02 09:06:04;;;;;;;4.18;1.88;;;9.90;78.50;;;;;;4974012;28;20050;-82
2022/02/02 09:08:31;;;;;;;5.18;1.98;;;9.90;78.50;;;;;;5000527;28;20111;-82
2022/02/02 09:25:01;;;;;;;4.82;2.35;;;9.90;78.30;;;;;;4983561;28;20560;-82
2022/02/02 09:35:27;;;;;;;5.03;1.90;;;9.90;78.50;;;;;;5020171;28;20067;-82
2022/02/02 09:37:53;;;;;;;7.65;2.53;;;10.00;78.50;;;;;;5000228;28;20065;-82
2022/02/02 09:41:12;;;;;;;5.85;2.45;;;10.00;78.50;;;;;;4984421;28;20457;-82
2022/02/02 09:43:21;;;;;;;7.82;2.58;;;10.00;78.50;;;;;;5010425;28;20022;-83
2022/02/02 09:45:57;;;;;;;4.82;2.25;;;10.00;78.50;;;;;;4996962;28;20030;-82
2022/02/02 09:48:50;;;;;;;6.00;2.13;;;10.00;78.50;;;;;;5000315;28;20041;-81
2022/02/02 09:51:14;;;;;;;7.90;2.33;;;10.10;78.50;;;;;;5010992;28;20120;-81
2022/02/02 09:53:53;;;;;;;8.70;2.80;;;10.10;78.50;;;;;;4999277;28;20061;-82
2022/02/02 10:02:15;;;;;;;7.57;2.40;;;10.10;78.50;;;;;;4997002;28;20036;-81
2022/02/02 10:13:46;;;;;;;8.57;2.40;;;10.20;78.60;;;;;;4977678;28;20057;-84
2022/02/02 10:15:57;;;;;;;8.13;2.40;;;10.20;78.60;;;;;;4999073;28;20034;-82
2022/02/02 10:18:32;;;;;;;9.02;2.40;;;10.20;78.90;;;;;;4980540;28;20037;-83
2022/02/02 10:20:59;;;;;;;7.03;2.45;;;10.20;78.60;;;;;;4980247;28;20029;-83
2022/02/02 10:23:30;;;;;;;5.72;2.05;;;10.30;78.60;;;;;;4980621;28;20113;-81
2022/02/02 10:26:13;;;;;;;6.38;2.40;;;10.30;78.60;;;;;;4977466;28;20037;-82
2022/02/02 10:28:38;;;;;;;6.82;3.03;;;10.30;78.60;;;;;;4971436;28;20034;-86
2022/02/02 10:31:06;;;;;;;7.28;2.33;;;10.30;78.50;;;;;;4976632;28;20031;-84
2022/02/02 10:33:33;;;;;;;7.18;2.08;;;10.30;78.50;;;;;;4968934;28;20089;-82
2022/02/02 10:36:11;;;;;;;6.90;2.53;;;10.40;78.60;;;;;;4976320;28;20764;-83
2022/02/02 10:38:49;;;;;;;9.82;2.97;;;10.40;78.60;;;;;;4982823;28;20080;-82
2022/02/02 10:43:55;;;;;;;10.55;3.00;;;10.50;78.60;;;;;;4976460;28;20475;-82
2022/02/02 10:49:16;;;;;;;10.32;3.00;;;10.50;78.60;;;;;;4975862;28;20041;-83
2022/02/02 10:51:51;;;;;;;7.47;3.00;;;10.50;78.60;;;;;;4960051;28;20026;-82
2022/02/02 10:59:38;;;;;;;8.95;3.13;;;10.60;78.60;;;;;;5011692;28;20367;-82
2022/02/02 11:07:20;;;;;;;7.50;2.92;;;10.70;78.60;;;;;;5034091;28;20033;-83
2022/02/02 11:09:46;;;;;;;7.90;3.05;;;10.70;78.50;;;;;;5016929;28;20452;-81
2022/02/02 11:12:14;;;;;;;6.50;2.70;;;10.80;78.60;;;;;;5014752;28;20031;-87
2022/02/02 11:14:59;;;;;;;9.25;2.85;;;10.80;78.60;;;;;;4982603;28;20083;-82
2022/02/02 11:18:07;;;;;;;7.57;2.78;;;10.80;78.70;;;;;;5014779;28;20489;-82
2022/02/02 11:20:33;;;;;;;7.63;2.95;;;10.80;78.70;;;;;;5011101;28;20030;-84
2022/02/02 11:23:01;;;;;;;7.18;2.35;;;10.80;78.50;;;;;;4999004;28;20095;-82
2022/02/02 11:25:33;;;;;;;5.68;2.30;;;10.90;78.60;;;;;;5028630;28;20078;-85
2022/02/02 11:28:05;;;;;;;7.93;2.72;;;10.90;78.60;;;;;;5018453;28;20122;-84
2022/02/02 11:30:40;;;;;;;6.70;2.58;;;10.90;78.60;;;;;;5019203;28;20037;-81
2022/02/02 11:33:15;;;;;;;8.25;2.60;;;11.00;78.60;;;;;;5017537;28;20433;-82
2022/02/02 11:35:46;;;;;;;;;;;11.00;78.60;;;;;;5035556;28;20040;-83
2022/02/02 11:38:24;;;;;;;5.82;2.50;;;11.00;78.50;;;;;;5016964;28;19909;-84
2022/02/02 11:41:17;;;;;;;6.28;2.35;;;11.10;78.50;;;;;;5014613;28;20029;-80
2022/02/02 11:44:08;;;;;;;6.60;2.67;;;11.10;78.70;;;;;;5014816;28;20048;-87
2022/02/02 11:46:46;;;;;;;8.57;2.65;;;11.10;78.70;;;;;;5007691;28;20067;-83
2022/02/02 11:49:17;;;;;;;5.63;2.30;;;11.20;78.70;;;;;;5018113;28;20106;-83
2022/02/02 11:52:03;;;;;;;5.65;2.35;;;11.20;78.60;;;;;;5018081;28;20056;-81
2022/02/02 11:54:32;;;;;;;9.52;2.80;;;11.20;78.70;;;;;;5031591;28;20469;-83
2022/02/02 11:57:03;;;;;;;4.80;2.20;;;11.30;78.60;;;;;;5018231;28;20029;-84
2022/02/02 12:02:29;;;;;;;7.85;2.85;;;11.30;78.60;;;;;;5051738;28;20052;-85
2022/02/02 12:05:13;;;;;;;7.72;2.67;;;11.40;78.60;;;;;;5014579;28;20061;-85
2022/02/02 12:08:19;;;;;;;5.20;2.40;;;11.40;78.60;;;;;;5015590;28;20033;-83
2022/02/02 12:11:39;;;;;;;6.55;2.28;;;11.50;79.30;;;;;;5015725;28;20036;-82
2022/02/02 12:49:00;;;;;;;7.38;2.67;;;11.90;78.60;;;;;;5008256;28;20057;-83
2022/02/02 12:54:55;;;;;;;7.13;2.40;;;12.00;78.40;;;;;;5037053;28;20115;-88
2022/02/02 12:57:19;;;;;;;4.30;2.00;;;12.00;78.40;;;;;;5034111;28;20311;-85
2022/02/02 13:02:24;;;;;;;6.20;2.28;;;12.10;78.30;;;;;;5007989;28;20449;-86
2022/02/02 13:05:03;;;;;;;4.57;1.70;;;12.20;78.40;;;;;;5010560;28;20054;-88
2022/02/02 13:07:31;;;;;;;3.58;1.70;;;12.20;78.30;;;;;;4997994;28;20438;-85
2022/02/02 13:10:04;;;;;;;6.95;2.25;;;12.30;78.30;;;;;;5029917;28;20029;-88
2022/02/02 13:12:39;;;;;;;3.15;1.73;;;12.30;78.20;;;;;;5036507;28;20032;-86
2022/02/02 13:15:33;;;;;;;4.07;1.90;;;12.30;78.20;;;;;;5014938;28;20476;-85
2022/02/02 13:18:08;;;;;;;;;;;12.40;78.20;;;;;;5020876;28;20069;-84
2022/02/02 13:23:39;;;;;;;4.45;1.75;;;12.40;78.10;;;;;;5075657;28;20033;-85
2022/02/02 13:26:22;;;;;;;4.47;1.63;;;12.40;78.20;;;;;;5031186;28;20052;-84
2022/02/02 13:34:49;;;;;;;3.40;1.55;;;12.60;78.30;;;;;;5017873;28;20119;-84
2022/02/02 13:44:04;;;;;;;4.60;1.60;;;12.60;78.30;;;;;;5018319;28;20060;-83
2022/02/02 13:47:01;;;;;;;4.28;1.70;;;12.70;78.20;;;;;;5020838;28;20037;-84
2022/02/02 13:49:44;;;;;;;4.88;1.55;;;12.70;78.20;;;;;;5024865;28;20440;-83
2022/02/02 13:52:33;;;;;;;5.65;1.73;;;12.70;78.20;;;;;;5011697;28;20112;-86
2022/02/02 13:55:28;;;;;;;4.32;1.55;;;12.80;78.40;;;;;;5016968;28;20025;-85
2022/02/02 14:01:05;;;;;;;5.13;1.80;;;12.80;78.30;;;;;;5042431;28;20078;-88
2022/02/02 14:31:12;;;;;;;5.33;1.97;;;13.20;77.90;;;;;;5022670;28;20044;-85
2022/02/02 14:33:41;;;;;;;4.25;1.63;;;13.30;77.90;;;;;;5019722;28;20033;-83
2022/02/02 14:36:09;;;;;;;4.72;2.10;;;13.40;77.90;;;;;;5020472;28;20033;-85
2022/02/02 14:38:46;;;;;;;3.03;1.52;;;13.30;77.80;;;;;;5029963;28;20474;-86
2022/02/02 14:41:27;;;;;;;4.00;1.75;;;13.40;77.80;;;;;;5016566;28;20037;-86
2022/02/02 14:44:03;;;;;;;4.38;1.75;;;13.40;77.70;;;;;;5015538;28;20028;-86
2022/02/02 14:46:45;;;;;;;5.18;1.60;;;13.50;77.70;;;;;;5019248;28;20047;-83
2022/02/02 14:49:17;;;;;;;5.05;1.80;;;13.50;77.60;;;;;;5019318;28;20063;-83
2022/02/02 14:51:59;;;;;;;5.85;1.70;;;13.50;77.50;;;;;;5018530;28;20029;-85
2022/02/02 14:54:45;;;;;;;4.80;1.92;;;13.50;77.50;;;;;;5035279;28;20075;-83
2022/02/02 15:23:57;;;;;;;5.15;2.00;;;13.70;77.30;;;;;;5027804;28;20044;-85
2022/02/02 15:29:45;;;;;;;4.55;1.80;;;13.70;77.30;;;;;;5018084;28;20132;-85
2022/02/02 15:32:13;;;;;;;3.78;1.60;;;13.70;77.30;;;;;;5034518;28;20043;-85
2022/02/02 15:34:51;;;;;;;4.60;1.60;;;13.70;77.30;;;;;;5018697;28;20025;-85
2022/02/02 15:58:57;;;;;;;6.30;1.77;;;13.70;77.20;;;;;;5052701;28;20484;-83
2022/02/02 16:04:15;;;;;;;4.50;1.80;;;13.70;77.20;;;;;;5019748;28;20026;-82
2022/02/02 16:06:41;;;;;;;4.93;1.97;;;13.70;77.20;;;;;;4999654;28;20056;-84
2022/02/02 16:09:23;;;;;;;5.07;1.98;;;13.70;77.20;;;;;;5007928;28;20033;-82
2022/02/02 16:12:20;;;;;;;4.53;1.92;;;13.70;77.20;;;;;;5032926;28;20127;-84
2022/02/02 16:18:03;;;;;;;4.03;1.70;;;13.70;77.10;;;;;;5028677;28;20462;-82
2022/02/02 16:31:54;;;;;;;4.05;1.80;;;13.60;77.10;;;;;;5000337;28;20037;-80
2022/02/02 16:37:11;;;;;;;4.90;1.85;;;13.50;77.10;;;;;;5033966;28;20037;-80
2022/02/02 16:44:28;;;;;;;4.95;1.90;;;13.40;77.20;;;;;;5042009;28;20036;-81
2022/02/02 16:51:35;;;;;;;;;;;13.30;77.20;;;;;;5028500;28;20120;-81
2022/02/02 17:31:11;;;;;;;3.42;1.65;;;13.00;77.30;;;;;;5016434;28;20068;-84
2022/02/02 17:33:45;;;;;;;4.20;2.00;;;13.00;77.40;;;;;;5035627;28;20036;-82
2022/02/02 17:36:26;;;;;;;;;;;12.90;77.30;;;;;;5025634;28;20427;-81
2022/02/02 18:01:03;;;;;;;4.90;1.90;;;12.70;77.40;;;;;;5014815;28;20045;-81
2022/02/02 18:19:08;;;;;;;3.58;1.75;;;12.60;77.50;;;;;;5016279;28;20041;-80
2022/02/02 18:21:35;;;;;;;4.05;2.05;;;12.60;77.50;;;;;;4998446;28;20060;-82
2022/02/02 18:27:01;;;;;;;5.72;2.03;;;12.60;77.50;;;;;;5025069;28;20082;-79
2022/02/02 18:32:08;;;;;;;4.82;2.28;;;12.60;77.60;;;;;;4999510;28;20470;-80
2022/02/02 18:45:18;;;;;;;3.97;2.08;;;12.50;77.50;;;;;;4999474;28;20037;-80
2022/02/02 18:47:59;;;;;;;4.13;1.70;;;12.50;77.60;;;;;;5008453;28;20038;-80
2022/02/02 18:56:23;;;;;;;5.07;2.35;;;12.40;77.50;;;;;;5025699;28;20037;-78
2022/02/02 20:03:59;;;;;;;5.68;3.05;;;12.20;78.00;;;;;;4995296;28;20065;-79
2022/02/02 20:11:43;;;;;;;5.85;3.10;;;12.20;78.10;;;;;;4995825;28;20061;-79
2022/02/02 20:14:11;;;;;;;5.82;3.15;;;12.20;78.10;;;;;;4976499;28;20168;-84
2022/02/02 20:16:37;;;;;;;5.20;3.05;;;12.10;78.10;;;;;;4986148;28;20077;-83
2022/02/02 20:19:07;;;;;;;4.85;3.15;;;12.20;78.10;;;;;;5000701;28;20172;-80
2022/02/02 20:21:43;;;;;;;5.22;3.05;;;12.20;78.10;;;;;;5003136;28;20033;-81
2022/02/02 20:24:09;;;;;;;5.57;3.10;;;12.20;78.10;;;;;;5016276;28;20021;-81
2022/02/02 20:26:36;;;;;;;5.32;3.30;;;12.20;78.10;;;;;;4992559;28;20042;-82
2022/02/02 20:29:04;;;;;;;6.63;3.60;;;12.20;78.10;;;;;;4981103;28;20478;-81
2022/02/02 20:31:32;;;;;;;5.13;3.30;;;12.20;78.10;;;;;;5012284;28;20045;-79
2022/02/02 20:34:02;;;;;;;5.35;3.53;;;12.20;78.10;;;;;;4996791;28;20064;-79
2022/02/02 20:36:28;;;;;;;5.78;3.70;;;12.20;78.20;;;;;;4998637;28;20052;-79
2022/02/02 20:38:54;;;;;;;4.38;3.30;;;12.10;78.10;;;;;;4998504;28;20041;-82
2022/02/02 20:41:19;;;;;;;5.70;3.75;;;12.20;78.20;;;;;;4984609;28;20042;-80
2022/02/02 20:43:55;;;;;;;5.25;3.30;;;12.20;78.20;;;;;;4989230;28;20071;-80
2022/02/02 21:06:05;;;;;;;5.68;3.88;;;12.10;78.90;;;;;;5001688;28;20045;-80
2022/02/02 21:10:44;;;;;;;6.07;3.72;;;12.10;78.20;;;;;;4981708;28;20029;-80
2022/02/02 21:16:05;;;;;;;5.40;3.95;;;12.00;78.30;;;;;;5000600;28;20033;-79
2022/02/02 21:19:05;;;;;;;6.38;4.30;;;12.10;78.40;;;;;;4998634;28;20049;-79
2022/02/02 21:21:39;;;;;;;6.35;4.55;;;12.00;78.40;;;;;;5006677;28;20382;-81
2022/02/02 21:27:17;;;;;;;6.40;4.77;;;12.10;78.30;;;;;;4996935;28;20038;-80
2022/02/02 21:29:50;;;;;;;6.70;4.47;;;12.10;78.40;;;;;;4985790;28;20311;-79
2022/02/02 21:32:17;;;;;;;6.82;4.80;;;12.00;78.30;;;;;;4977836;28;20065;-85
2022/02/02 21:34:44;;;;;;;6.15;4.13;;;12.10;78.40;;;;;;4998711;28;20064;-83
2022/02/02 21:37:10;;;;;;;6.93;4.72;;;12.00;78.40;;;;;;4994025;28;20075;-83
2022/02/02 21:39:44;;;;;;;7.90;5.22;;;12.00;78.40;;;;;;5003459;28;20061;-80
2022/02/02 21:42:13;;;;;;;6.93;4.90;;;12.00;78.40;;;;;;4980722;28;20080;-84
2022/02/02 21:44:41;;;;;;;6.95;5.00;;;12.10;78.40;;;;;;4987391;28;20038;-80
2022/02/02 21:47:12;;;;;;;7.15;5.10;;;12.00;78.40;;;;;;4998510;28;20041;-83
2022/02/02 21:49:39;;;;;;;6.72;4.80;;;12.10;78.50;;;;;;4980003;28;20041;-79
2022/02/02 21:52:09;;;;;;;6.68;4.78;;;12.10;78.40;;;;;;5026246;28;20503;-81
2022/02/02 21:54:41;;;;;;;7.55;5.63;;;12.10;78.40;;;;;;4965354;28;20501;-82
2022/02/02 21:57:07;;;;;;;7.18;4.93;;;12.00;78.40;;;;;;4984499;28;20034;-83
2022/02/02 21:59:33;;;;;;;7.80;5.47;;;12.00;78.40;;;;;;4997124;28;20084;-81
2022/02/02 22:02:01;;;;;;;7.80;5.25;;;12.00;78.40;;;;;;4996631;28;20066;-82
2022/02/02 22:04:27;;;;;;;8.05;5.40;;;12.00;78.40;;;;;;5025611;28;20057;-81
2022/02/02 22:06:54;;;;;;;7.65;5.45;;;12.00;78.40;;;;;;5002892;28;20132;-82
2022/02/02 22:09:20;;;;;;;8.07;5.65;;;12.10;78.50;;;;;;4995866;28;20109;-82
2022/02/02 22:11:46;;;;;;;9.93;6.43;;;12.00;78.40;;;;;;4983636;28;20169;-80
2022/02/02 22:14:17;;;;;;;9.38;5.93;;;12.00;78.40;;;;;;4995247;28;20402;-82
2022/02/02 22:16:46;;;;;;;9.77;6.47;;;12.00;78.40;;;;;;4971729;28;20045;-82
2022/02/02 22:19:12;;;;;;;9.32;6.05;;;12.10;78.40;;;;;;4980816;28;20033;-83
2022/02/02 22:21:37;;;;;;;8.27;5.88;;;12.00;78.40;;;;;;4999307;28;20032;-83
2022/02/02 22:24:04;;;;;;;7.95;5.45;;;12.10;78.50;;;;;;5005942;28;20381;-82
2022/02/02 22:26:30;;;;;;;9.95;6.50;;;12.10;78.50;;;;;;4990714;28;20057;-82
2022/02/02 22:28:56;;;;;;;9.15;6.30;;;12.10;78.50;;;;;;4996821;28;20046;-82
2022/02/02 22:31:22;;;;;;;9.02;6.25;;;12.00;78.40;;;;;;5008434;28;20034;-81
2022/02/02 22:33:48;;;;;;;10.00;6.15;;;12.00;78.40;;;;;;4998055;28;20022;-80
2022/02/02 22:36:14;;;;;;;8.85;6.38;;;12.00;78.40;;;;;;4980216;28;20088;-81
2022/02/02 22:38:43;;;;;;;8.65;6.28;;;12.10;78.50;;;;;;4983744;28;20363;-80
2022/02/02 22:41:11;;;;;;;8.98;6.32;;;12.10;78.50;;;;;;4983838;28;20127;-81
2022/02/02 22:43:44;;;;;;;9.73;6.85;;;12.10;78.50;;;;;;4999510;28;20088;-82
2022/02/02 22:46:10;;;;;;;9.05;6.22;;;12.00;78.40;;;;;;5010198;28;20029;-81
2022/02/02 22:48:38;;;;;;;9.68;6.57;;;12.00;78.40;;;;;;4995557;28;20028;-81
2022/02/02 22:51:04;;;;;;;10.48;6.75;;;12.10;78.50;;;;;;4998572;28;20386;-81
2022/02/02 22:53:32;;;;;;;9.80;7.03;;;12.10;78.50;;;;;;5001784;28;20045;-82
2022/02/02 22:55:58;;;;;;;9.60;6.25;;;12.00;78.50;;;;;;4982947;28;20041;-82
2022/02/02 22:58:23;;;;;;;9.40;6.25;;;12.10;78.50;;;;;;4969902;28;20117;-83
2022/02/02 23:00:50;;;;;;;9.65;6.57;;;12.00;78.50;;;;;;4979795;28;20030;-81
2022/02/02 23:03:19;;;;;;;10.63;7.45;;;12.00;78.50;;;;;;4995876;28;20488;-82
2022/02/02 23:05:49;;;;;;;9.20;6.53;;;12.00;78.50;;;;;;4980032;28;20061;-82
2022/02/02 23:08:17;;;;;;;10.57;7.13;;;12.10;78.50;;;;;;4995494;28;20131;-82
2022/02/02 23:10:43;;;;;;;10.27;7.35;;;12.00;78.50;;;;;;4984464;28;20040;-81
2022/02/02 23:13:11;;;;;;;10.55;7.18;;;12.00;78.50;;;;;;4995059;28;20632;-82
2022/02/02 23:15:43;;;;;;;10.90;7.68;;;12.00;78.50;;;;;;5007244;28;20018;-82
2022/02/02 23:18:17;;;;;;;9.85;7.32;;;12.00;78.50;;;;;;4996070;28;20030;-83
2022/02/02 23:20:51;;;;;;;10.70;7.47;;;12.00;78.50;;;;;;4964715;28;20038;-82
2022/02/02 23:23:19;;;;;;;11.02;7.78;;;12.10;78.80;;;;;;5020352;28;20037;-83
2022/02/02 23:25:46;;;;;;;10.88;7.68;;;12.10;78.60;;;;;;4990876;28;20028;-81
2022/02/02 23:28:13;;;;;;;10.55;7.20;;;12.10;78.60;;;;;;5005666;28;20033;-81
2022/02/02 23:30:40;;;;;;;11.25;7.93;;;12.10;78.60;;;;;;4963166;28;20034;-82
2022/02/02 23:33:06;;;;;;;10.80;7.95;;;12.00;78.50;;;;;;4994400;28;20024;-81
2022/02/02 23:35:32;;;;;;;11.48;8.25;;;12.00;78.50;;;;;;4983925;28;20022;-82
2022/02/02 23:37:59;;;;;;;11.35;8.38;;;12.00;78.50;;;;;;4981017;28;20422;-82
2022/02/02 23:40:26;;;;;;;11.80;8.48;;;12.00;78.50;;;;;;4995199;28;20033;-81
2022/02/02 23:42:52;;;;;;;11.60;8.82;;;12.10;78.60;;;;;;4984341;28;20047;-81
2022/02/02 23:45:17;;;;;;;11.13;7.95;;;12.10;78.60;;;;;;4991364;28;20534;-81
2022/02/02 23:47:47;;;;;;;12.70;8.95;;;12.10;78.50;;;;;;5002972;28;20410;-83
2022/02/02 23:50:15;;;;;;;11.35;8.63;;;12.00;78.50;;;;;;4990920;28;20041;-81
2022/02/02 23:52:50;;;;;;;12.13;8.50;;;12.00;78.50;;;;;;4997951;28;20083;-82
2022/02/02 23:55:35;;;;;;;10.73;8.07;;;12.00;78.50;;;;;;4994893;28;20026;-81
2022/02/02 23:58:10;;;;;;;11.23;8.52;;;12.00;78.50;;;;;;4989933;28;20032;-82
